Lone Pine, CA

8:54 PM PDT on August 28, 2015 (GMT -0700)
Little Hollywood | | Change Station
CLOSE
Current Station
Personal Weather Station
Location: Lone Pine, CA
Elevation: 3727 ft
Nearby Weather Stations

Elev 3727 ft 36.60 °N, 118.06 °W | Updated 14 minutes ago

Mostly Cloudy
Mostly Cloudy
86.0 °F
Feels Like 83 °F
N
1.7
Wind Variable Wind from East

Today
High -- | Low -- °F
--% Chance of Precip.
Yesterday
High -- | Low -- °F
Precip. -- in
6:20 AM 7:26 PM
Waxing Gibbous, 99% visible
Pressure 29.80 in
Visibility 2.5 miles
Clouds Overcast 3800 ft
Heat Index 83 °F
Dew Point 45 °F
Humidity 24%
Rainfall 0.00 in
Snow Depth Not available.
UV 0 out of 12
Pollen 8.90 out of 12
Air Quality Not available.
Flu Activity Not available.
METAR KBIH 290256Z AUTO 05005KT 2 1/2SM HZ OVC038 29/06 A2995 RMK AO2 SLP091 T02890061 55001
Pressure 29.80 in
Visibility 2.5 miles
Clouds Overcast 3800 ft
Heat Index 83 °F
Dew Point 45 °F
Humidity 24%
Rainfall 0.00 in
Snow Depth Not available.
UV 0 out of 12
Pollen 8.90 out of 12
Air Quality Not available.
Flu Activity Not available.
METAR KBIH 290256Z AUTO 05005KT 2 1/2SM HZ OVC038 29/06 A2995 RMK AO2 SLP091 T02890061 55001

10-Day Weather Forecast

×

Almanac

Astronomy

Aug. 28, 2015 Rise Set
Actual Time
Civil Twilight
Nautical Twilight
Astronomical Twilight
Moon
Length of Visible Light
Length of Day
Tomorrow will be .
, % of the Moon is Illuminated

Today's Extremes

State Highs State Lows

Community

WunderPhotos

Upload Photos

1,850,609 photos uploaded!

WunderBlogs® & News

Nearby

Air Quality

  Air Quality AQ Index Pollutant
Not available.

Snow Depth

Station Depth Elevation

Earthquake Activity

City Distance Mag. Time & Date
Minimum magnitude displayed is 2.5.

Coastal Water Temperatures

Place Temperature

Stations

Nearby Weather Stations

Station Location Temp. Windchill Dew Point Humidity Wind Precip. Elev Updated Type